N1JOT Weather Reports


Display with metric or nautical units.
time (UTC)temp
F
wind
direction
speed
MPH
gust
MPH
rain 1hr
in
rain 24hr
in
rain mn
in
humidity
%
barometer
mb
20260901225059 62 0 1.0 3.0 0.00 0.12 0.12 93 1019.0
20260901224602 62 69 0.0 2.0 0.00 0.12 0.12 93 1018.9
20260901224059 62 0 0.0 3.0 0.00 0.12 0.12 93 1018.9
20260901223600 62 0 0.0 4.0 0.00 0.12 0.12 93 1018.9
20260901223111 62 84 0.0 4.0 0.00 0.12 0.12 93 1018.8
20260901222559 62 76 0.0 4.0 0.01 0.12 0.12 93 1018.8
20260901222059 62 87 1.0 5.0 0.01 0.12 0.12 93 1018.9
20260901221604 62 71 1.0 5.0 0.01 0.12 0.12 93 1019.0
20260901221100 62 61 2.0 5.0 0.01 0.12 0.12 93 1019.0
20260901220559 62 0 0.0 1.0 0.02 0.12 0.12 93 1019.2
20260901220107 62 0 0.0 1.0 0.02 0.12 0.12 93 1019.3
20260901215559 62 0 0.0 1.0 0.02 0.12 0.12 93 1019.3
20260901215059 61 0 0.0 2.0 0.02 0.12 0.12 93 1019.3
20260901214604 61 70 0.0 2.0 0.02 0.12 0.12 93 1019.2
20260901214101 61 0 0.0 2.0 0.02 0.12 0.12 93 1019.2
20260901213559 61 0 0.0 1.0 0.02 0.12 0.12 93 1019.1
20260901213059 61 0 0.0 1.0 0.03 0.12 0.12 93 1019.2
20260901212601 61 0 0.0 1.0 0.02 0.11 0.11 93 1019.2
20260901212100 61 0 0.0 0.0 0.02 0.11 0.11 93 1019.2
20260901211601 61 0 0.0 1.0 0.02 0.11 0.11 92 1019.2
20260901211106 61 0 0.0 1.0 0.02 0.11 0.11 93 1019.1
20260901210559 61 168 0.0 1.0 0.01 0.10 0.10 93 1019.0
20260901210114 61 0 0.0 2.0 0.01 0.10 0.10 92 1018.9
20260901205559 61 0 0.0 2.0 0.01 0.10 0.10 93 1018.8
20260901205059 61 0 0.0 1.0 0.02 0.10 0.10 93 1018.8
20260901204602 60 95 0.0 1.0 0.02 0.10 0.10 92 1018.7
20260901204059 61 0 0.0 0.0 0.02 0.10 0.10 92 1018.7
20260901203600 61 0 0.0 0.0 0.02 0.10 0.10 92 1018.6
20260901203115 61 0 0.0 0.0 0.01 0.09 0.09 92 1018.5
20260901202600 61 0 0.0 0.0 0.01 0.09 0.09 92 1018.5
20260901202101 61 0 0.0 0.0 0.01 0.09 0.09 93 1018.6
20260901201600 61 0 0.0 0.0 0.01 0.09 0.09 92 1018.5
20260901201100 60 0 0.0 0.0 0.01 0.09 0.09 92 1018.5
20260901200559 61 0 0.0 0.0 0.01 0.09 0.09 92 1018.5
20260901200105 61 0 0.0 0.0 0.01 0.09 0.09 92 1018.6
20260901195603 61 0 0.0 0.0 0.01 0.09 0.09 92 1018.5
20260901195100 61 0 0.0 1.0 0.00 0.08 0.08 92 1018.6
20260901194615 61 0 0.0 1.0 0.00 0.08 0.08 92 1018.6
20260901194101 61 0 0.0 1.0 0.00 0.08 0.08 92 1018.7
20260901193559 61 0 0.0 1.0 0.00 0.08 0.08 92 1018.7
20260901193106 62 0 0.0 1.0 0.00 0.08 0.08 92 1018.5
20260901192600 62 0 0.0 1.0 0.00 0.08 0.08 91 1018.4
20260901192100 62 0 0.0 1.0 0.00 0.08 0.08 92 1018.4
20260901191607 62 0 0.0 1.0 0.01 0.08 0.08 92 1018.4
20260901191101 62 95 0.0 3.0 0.01 0.08 0.08 91 1018.5
20260901190604 63 61 0.0 3.0 0.02 0.08 0.08 92 1018.4
20260901190115 63 61 0.0 3.0 0.03 0.08 0.08 92 1018.4
20260901185606 63 0 0.0 2.0 0.05 0.08 0.08 92 1018.2
20260901185059 63 0 0.0 2.0 0.07 0.08 0.08 92 1018.1
20260901184619 62 0 0.0 1.0 0.07 0.08 0.08 92 1018.4
20260901184103 62 0 0.0 1.0 0.07 0.08 0.08 92 1018.4
20260901183600 63 0 0.0 1.0 0.08 0.08 0.08 92 1018.3
20260901183059 63 0 0.0 1.0 0.08 0.08 0.08 92 1018.3
20260901182600 62 0 0.0 2.0 0.08 0.08 0.08 91 1018.4
20260901182100 62 0 0.0 2.0 0.08 0.08 0.08 91 1018.4
20260901181604 62 0 0.0 2.0 0.07 0.07 0.07 91 1018.3
20260901181059 62 0 0.0 1.0 0.07 0.07 0.07 91 1018.2
20260901180601 62 0 0.0 1.0 0.06 0.06 0.06 90 1018.1
20260901180105 62 0 0.0 1.0 0.05 0.05 0.05 89 1018.0
20260901175603 63 0 0.0 1.0 0.03 0.03 0.03 88 1018.0
20260901175100 63 0 0.0 2.0 0.01 0.01 0.01 87 1018.1
20260901174623 63 0 0.0 2.0 0.01 0.01 0.01 86 1018.3
20260901174101 63 0 0.0 2.0 0.01 0.01 0.01 85 1018.4
20260901173600 64 261 0.0 2.0 0.00 0.00 0.00 84 1018.2
20260901173102 64 0 0.0 2.0 0.00 0.00 0.00 83 1018.3
20260901172600 65 0 0.0 3.0 0.00 0.00 0.00 81 1018.3
20260901172100 65 0 0.0 3.0 0.00 0.00 0.00 80 1018.3
20260901171605 66 288 0.0 1.0 0.00 0.00 0.00 78 1018.3
20260901171100 66 0 0.0 3.0 0.00 0.00 0.00 79 1018.2
20260901170601 66 168 0.0 3.0 0.00 0.00 0.00 78 1018.2
20260901165604 66 0 0.0 4.0 0.00 0.00 0.00 80 1018.3
20260901165100 67 0 0.0 4.0 0.00 0.00 0.00 80 1018.2
20260901164606 68 163 0.0 3.0 0.00 0.00 0.00 81 1018.1
20260901164103 68 0 0.0 3.0 0.00 0.00 0.00 82 1018.0
20260901163600 68 289 0.0 3.0 0.00 0.00 0.00 82 1017.9
20260901163104 68 0 0.0 3.0 0.00 0.00 0.00 81 1017.9
20260901162600 68 0 0.0 3.0 0.00 0.00 0.00 80 1017.9
20260901162059 69 0 0.0 3.0 0.00 0.00 0.00 78 1017.9
20260901161614 69 0 1.0 5.0 0.00 0.00 0.00 78 1018.1
20260901161101 69 0 1.0 5.0 0.00 0.00 0.00 79 1018.1
20260901160600 69 188 1.0 5.0 0.00 0.00 0.00 80 1017.9
20260901155600 70 57 0.0 4.0 0.00 0.00 0.00 82 1017.8
20260901155100 69 89 0.0 4.0 0.00 0.00 0.00 81 1018.0
20260901154605 70 0 0.0 3.0 0.00 0.00 0.00 84 1018.1
20260901154100 70 0 0.0 3.0 0.00 0.00 0.00 84 1018.0
20260901153600 70 170 1.0 4.0 0.00 0.00 0.00 82 1018.1
20260901153103 71 222 1.0 4.0 0.00 0.00 0.00 84 1018.1
20260901152559 71 0 1.0 4.0 0.00 0.00 0.00 84 1018.1
20260901152059 71 333 0.0 4.0 0.00 0.00 0.00 85 1018.2
20260901151602 71 0 0.0 4.0 0.00 0.00 0.00 84 1018.1
20260901151102 71 0 1.0 4.0 0.00 0.00 0.00 84 1018.1
20260901150603 71 117 1.0 6.0 0.00 0.00 0.00 85 1018.2
20260901150130 71 0 2.0 6.0 0.00 0.00 0.00 84 1018.2
20260901145602 72 106 1.0 4.0 0.00 0.00 0.00 87 1018.3
20260901145101 70 0 1.0 4.0 0.00 0.00 0.00 88 1018.3
20260901144604 70 96 0.0 4.0 0.00 0.00 0.00 88 1018.2
20260901144102 69 0 2.0 4.0 0.00 0.00 0.00 89 1018.1
20260901143600 69 117 2.0 4.0 0.00 0.00 0.00 89 1018.0
20260901143136 69 104 0.0 1.0 0.00 0.00 0.00 90 1018.2
20260901142559 68 0 0.0 0.0 0.00 0.00 0.00 90 1018.4
20260901142100 68 0 0.0 0.0 0.00 0.00 0.00 90 1018.4
20260901141611 68 0 0.0 0.0 0.00 0.00 0.00 90 1018.4
20260901141100 68 0 0.0 0.0 0.00 0.00 0.00 90 1018.5
20260901140559 67 0 0.0 0.0 0.00 0.00 0.00 89 1018.6
20260901140107 67 0 0.0 0.0 0.00 0.00 0.00 90 1018.7
20260901135601 67 0 0.0 0.0 0.00 0.00 0.00 89 1018.6
20260901135102 67 0 0.0 2.0 0.00 0.00 0.00 90 1018.6
20260901134604 67 0 0.0 2.0 0.00 0.00 0.00 90 1018.3
20260901134104 67 0 0.0 2.0 0.00 0.00 0.00 90 1018.2
20260901133602 67 0 0.0 2.0 0.00 0.00 0.00 90 1018.2
20260901133110 67 70 0.0 2.0 0.00 0.00 0.00 90 1018.3
20260901132600 67 0 1.0 2.0 0.00 0.00 0.00 91 1018.4
20260901132102 66 0 0.0 1.0 0.00 0.00 0.00 91 1018.3
20260901131605 66 0 0.0 0.0 0.00 0.00 0.00 91 1018.6
20260901131100 66 0 0.0 0.0 0.00 0.00 0.00 91 1018.6
20260901130601 66 0 0.0 1.0 0.00 0.00 0.00 91 1018.5
20260901130108 66 0 0.0 1.0 0.00 0.00 0.00 90 1018.4
20260901125600 66 0 0.0 2.0 0.00 0.00 0.00 90 1018.4
20260901125103 66 0 0.0 2.0 0.00 0.00 0.00 90 1018.3
20260901124605 66 0 0.0 0.0 0.00 0.00 0.00 90 1018.3
20260901124100 66 0 0.0 0.0 0.00 0.00 0.00 90 1018.3
20260901123601 66 0 0.0 0.0 0.00 0.00 0.00 90 1018.3
20260901123059 66 0 0.0 0.0 0.00 0.00 0.00 91 1018.3
20260901122601 66 0 0.0 0.0 0.00 0.00 0.00 91 1018.4
20260901122104 66 0 0.0 0.0 0.00 0.00 0.00 91 1018.4
20260901121603 66 0 0.0 0.0 0.00 0.00 0.00 91 1018.3
20260901121101 66 0 0.0 0.0 0.00 0.00 0.00 91 1018.4
20260901120559 66 0 0.0 2.0 0.00 0.00 0.00 91 1018.4
20260901120121 66 0 0.0 2.0 0.00 0.00 0.00 91 1018.3
20260901115600 66 0 0.0 0.0 0.00 0.00 0.00 91 1018.3
20260901115101 66 0 0.0 3.0 0.00 0.00 0.00 91 1018.2
20260901114603 66 0 0.0 3.0 0.00 0.00 0.00 91 1018.0
20260901114100 66 69 0.0 0.0 0.00 0.00 0.00 91 1017.9
20260901113600 65 0 0.0 0.0 0.00 0.00 0.00 91 1018.1
20260901113103 65 0 0.0 0.0 0.00 0.00 0.00 91 1018.2
20260901112600 65 0 0.0 0.0 0.00 0.00 0.00 91 1018.2
20260901112100 65 0 0.0 0.0 0.00 0.00 0.00 91 1018.0
20260901111608 65 0 0.0 0.0 0.00 0.00 0.00 91 1018.2
20260901111101 64 0 0.0 0.0 0.00 0.00 0.00 91 1018.1
20260901110600 64 0 0.0 0.0 0.00 0.00 0.00 91 1018.0
20260901110110 64 0 0.0 0.0 0.00 0.00 0.00 91 1018.0
20260901105601 64 0 0.0 0.0 0.00 0.01 0.00 91 1018.0
20260901105100 64 0 0.0 0.0 0.00 0.01 0.00 91 1018.0
20260901104606 64 0 0.0 0.0 0.00 0.01 0.00 91 1018.0
20260901104101 64 0 0.0 0.0 0.00 0.01 0.00 91 1017.9
20260901103604 64 0 0.0 0.0 0.00 0.01 0.00 91 1017.8
20260901103106 64 0 0.0 0.0 0.00 0.01 0.00 91 1017.8
20260901102600 64 0 0.0 0.0 0.00 0.01 0.00 91 1017.7
20260901102100 64 0 0.0 0.0 0.00 0.01 0.00 91 1017.8
20260901101607 64 0 0.0 0.0 0.00 0.01 0.00 91 1017.7
20260901101100 64 0 0.0 0.0 0.00 0.01 0.00 91 1017.8
20260901100603 64 0 0.0 0.0 0.00 0.01 0.00 91 1017.7
20260901095600 64 0 0.0 0.0 0.00 0.01 0.00 91 1017.7
20260901095101 64 0 0.0 0.0 0.00 0.01 0.00 91 1017.7
20260901094605 64 0 0.0 0.0 0.00 0.01 0.00 91 1017.7
20260901094100 64 0 0.0 0.0 0.00 0.01 0.00 91 1017.7
20260901093600 64 0 0.0 0.0 0.00 0.01 0.00 91 1017.7
20260901093108 64 0 0.0 0.0 0.00 0.01 0.00 91 1017.8
20260901092600 63 0 0.0 0.0 0.00 0.01 0.00 91 1017.8
20260901092100 64 0 0.0 0.0 0.00 0.01 0.00 91 1017.7
20260901091606 63 0 0.0 0.0 0.00 0.01 0.00 91 1017.6
20260901091101 63 0 0.0 0.0 0.00 0.01 0.00 91 1017.7
20260901090558 63 0 0.0 0.0 0.00 0.01 0.00 90 1017.8
20260901085558 64 0 0.0 0.0 0.00 0.01 0.00 90 1017.8
20260901085058 64 0 0.0 0.0 0.00 0.01 0.00 90 1017.8
20260901084606 64 0 0.0 0.0 0.00 0.01 0.00 89 1017.9
20260901084058 64 0 0.0 0.0 0.00 0.01 0.00 89 1017.9
20260901083601 64 0 0.0 0.0 0.00 0.01 0.00 89 1017.9
20260901083104 64 0 0.0 0.0 0.00 0.01 0.00 90 1018.2
20260901082558 64 0 0.0 0.0 0.00 0.01 0.00 90 1018.3
20260901082059 64 0 0.0 0.0 0.00 0.01 0.00 90 1018.4
20260901081602 64 0 0.0 0.0 0.00 0.01 0.00 90 1018.4
20260901081102 64 0 0.0 0.0 0.00 0.01 0.00 90 1018.6
20260901080600 64 0 0.0 1.0 0.00 0.01 0.00 90 1018.5
20260901080105 64 0 0.0 1.0 0.00 0.01 0.00 89 1018.5
20260901075558 64 0 0.0 0.0 0.00 0.01 0.00 89 1018.4
20260901075058 64 0 0.0 0.0 0.00 0.01 0.00 89 1018.4
20260901074604 64 0 0.0 0.0 0.00 0.01 0.00 89 1018.4
20260901074058 64 0 0.0 0.0 0.00 0.01 0.00 89 1018.4
20260901073600 65 0 0.0 0.0 0.00 0.01 0.00 89 1018.4
20260901073103 64 0 0.0 0.0 0.00 0.01 0.00 89 1018.4
20260901072600 64 0 0.0 0.0 0.00 0.01 0.00 89 1018.5
20260901072059 64 0 0.0 1.0 0.00 0.01 0.00 89 1018.5
20260901071628 64 0 0.0 1.0 0.00 0.01 0.00 89 1018.5
20260901071059 64 0 0.0 0.0 0.00 0.01 0.00 89 1018.6
20260901070558 64 0 0.0 0.0 0.00 0.01 0.00 89 1018.6
20260901070103 64 0 0.0 0.0 0.00 0.01 0.00 89 1018.6
20260901065600 64 0 0.0 1.0 0.00 0.01 0.00 89 1018.5
20260901065100 65 0 0.0 1.0 0.00 0.01 0.00 89 1018.6
20260901064603 65 0 0.0 0.0 0.00 0.01 0.00 89 1018.7
20260901064100 64 0 0.0 0.0 0.00 0.01 0.00 89 1018.6
20260901063559 64 0 0.0 0.0 0.00 0.01 0.00 89 1018.8
20260901063105 64 0 0.0 0.0 0.00 0.01 0.00 89 1018.8
20260901062601 64 0 0.0 0.0 0.00 0.01 0.00 89 1018.8
20260901062058 64 0 0.0 0.0 0.00 0.01 0.00 89 1018.8
20260901061604 64 0 0.0 0.0 0.00 0.01 0.00 89 1018.8
20260901061103 64 0 0.0 0.0 0.00 0.01 0.00 89 1018.7
20260901060601 64 0 0.0 0.0 0.00 0.01 0.00 89 1018.8
20260901060117 64 0 0.0 0.0 0.00 0.01 0.00 89 1018.6
20260901055600 64 0 0.0 0.0 0.00 0.01 0.00 89 1018.7
20260901055059 64 0 0.0 0.0 0.00 0.01 0.00 89 1018.7
20260901054606 64 0 0.0 0.0 0.00 0.01 0.00 89 1018.7
20260901054100 64 0 0.0 0.0 0.00 0.01 0.00 89 1018.8
20260901053601 64 0 0.0 0.0 0.00 0.01 0.00 88 1018.8
20260901053114 64 0 0.0 0.0 0.00 0.01 0.00 88 1018.9
20260901052601 64 0 0.0 0.0 0.00 0.01 0.00 88 1019.0
20260901052059 64 0 0.0 0.0 0.00 0.01 0.00 88 1019.0
20260901051606 64 0 0.0 0.0 0.00 0.01 0.00 88 1018.9
20260901051059 64 0 0.0 0.0 0.00 0.01 0.00 87 1018.9
20260901050559 65 0 0.0 0.0 0.00 0.01 0.00 87 1018.9
20260901045559 65 0 0.0 1.0 0.00 0.04 0.00 87 1018.9
20260901045059 65 0 0.0 1.0 0.00 0.04 0.00 87 1019.1
20260901044609 65 0 0.0 2.0 0.00 0.04 0.00 87 1019.0
20260901044100 65 0 0.0 2.0 0.00 0.04 0.00 87 1018.9
20260901043601 65 0 0.0 2.0 0.00 0.04 0.00 87 1018.9
20260901043126 65 0 0.0 2.0 0.00 0.04 0.00 87 1018.9
20260901042600 65 0 0.0 1.0 0.00 0.04 0.00 87 1019.1
20260901042059 65 0 0.0 1.0 0.00 0.04 0.00 87 1019.2
20260901041601 65 0 0.0 1.0 0.00 0.04 0.00 87 1019.2
20260901041100 65 0 0.0 1.0 0.00 0.04 0.00 87 1019.2
20260901040559 65 0 0.0 1.0 0.00 0.04 0.00 87 1019.2
20260901040125 65 0 0.0 1.0 0.00 0.04 0.00 87 1019.2
20260901035600 65 0 0.0 1.0 0.00 0.05 0.04 87 1019.3
20260901035058 65 172 0.0 0.0 0.00 0.05 0.04 87 1019.2
20260901034607 65 0 0.0 0.0 0.00 0.05 0.04 87 1019.2
20260901034059 65 0 0.0 0.0 0.00 0.05 0.04 86 1019.2
20260901033600 65 0 0.0 0.0 0.00 0.05 0.04 86 1019.2
20260901033131 65 0 0.0 0.0 0.00 0.05 0.04 86 1019.2
20260901032604 65 0 0.0 0.0 0.00 0.05 0.04 86 1019.2
20260901032100 65 0 0.0 0.0 0.00 0.05 0.04 86 1019.3
20260901031628 65 0 0.0 1.0 0.00 0.05 0.04 87 1019.3
20260901031059 65 0 0.0 1.0 0.00 0.05 0.04 87 1019.3
20260901030559 65 0 0.0 0.0 0.00 0.05 0.04 86 1019.3
20260901025600 65 0 0.0 1.0 0.00 0.12 0.04 86 1019.3
20260901025100 65 0 0.0 0.0 0.00 0.12 0.04 86 1019.3
20260901024601 65 0 0.0 0.0 0.00 0.12 0.04 86 1019.3
20260901024102 65 0 0.0 1.0 0.00 0.12 0.04 86 1019.3
20260901023601 65 0 0.0 1.0 0.00 0.12 0.04 85 1019.3
20260901023109 65 0 0.0 0.0 0.00 0.12 0.04 85 1019.3
20260901022559 66 0 0.0 0.0 0.00 0.12 0.04 85 1019.4
20260901022059 65 0 0.0 0.0 0.00 0.12 0.04 85 1019.4
20260901021605 65 0 0.0 1.0 0.00 0.12 0.04 85 1019.5
20260901021100 65 0 0.0 1.0 0.00 0.12 0.04 86 1019.6
20260901020600 66 0 0.0 0.0 0.00 0.12 0.04 86 1019.6
20260901015559 66 0 0.0 0.0 0.00 0.12 0.04 85 1019.6
20260901015059 66 0 0.0 0.0 0.00 0.12 0.04 85 1019.7
20260901014608 66 0 0.0 0.0 0.00 0.12 0.04 85 1019.7
20260901014059 66 0 0.0 0.0 0.00 0.12 0.04 85 1019.6
20260901013600 66 0 0.0 0.0 0.00 0.12 0.04 85 1019.6
20260901013103 66 0 0.0 0.0 0.00 0.12 0.04 85 1019.6
20260901012559 66 0 0.0 0.0 0.00 0.12 0.04 84 1019.5
20260901012103 67 0 0.0 0.0 0.00 0.12 0.04 83 1019.6
20260901011604 67 0 0.0 2.0 0.00 0.12 0.04 83 1019.5
20260901011100 67 0 0.0 2.0 0.00 0.12 0.04 83 1019.6
20260901010600 67 0 0.0 2.0 0.00 0.12 0.04 83 1019.5
20260901010104 67 0 0.0 0.0 0.00 0.12 0.04 83 1019.5
20260901005600 67 0 0.0 0.0 0.00 0.12 0.04 84 1019.4
20260901005059 67 0 0.0 0.0 0.00 0.12 0.04 84 1019.4
20260901004608 67 0 0.0 0.0 0.00 0.12 0.04 84 1019.5
20260901004059 67 0 0.0 2.0 0.00 0.12 0.04 84 1019.5
20260901003600 67 0 0.0 2.0 0.00 0.12 0.04 84 1019.5
20260901003105 67 0 0.0 2.0 0.00 0.12 0.04 84 1019.5
20260901002600 67 0 0.0 0.0 0.00 0.12 0.04 83 1019.4
20260901002059 68 0 0.0 0.0 0.00 0.12 0.04 83 1019.5
20260901001622 68 0 0.0 0.0 0.00 0.12 0.04 83 1019.5
20260901001104 68 0 0.0 0.0 0.00 0.12 0.04 83 1019.4
20260901000559 68 0 0.0 0.0 0.00 0.12 0.04 83 1019.5
20260901000111 68 0 0.0 0.0 0.00 0.12 0.04 83 1019.5
20260831235559 68 0 0.0 0.0 0.00 0.12 0.04 83 1019.5
20260831235104 68 0 0.0 0.0 0.00 0.12 0.04 83 1019.5
20260831234603 68 0 0.0 0.0 0.00 0.12 0.04 82 1019.4
20260831234059 68 0 0.0 0.0 0.00 0.12 0.04 82 1019.4
20260831233600 68 0 0.0 0.0 0.00 0.12 0.04 81 1019.4
20260831233106 68 0 0.0 0.0 0.00 0.12 0.04 81 1019.5
20260831232559 68 0 0.0 0.0 0.00 0.12 0.04 81 1019.5
20260831232100 68 0 0.0 0.0 0.00 0.12 0.04 81 1019.4
20260831231603 68 0 0.0 0.0 0.00 0.12 0.04 81 1019.4
20260831231101 68 0 0.0 0.0 0.00 0.12 0.04 81 1019.4
20260831230600 68 0 0.0 0.0 0.00 0.12 0.04 80 1019.3
20260831230115 68 0 0.0 0.0 0.00 0.12 0.04 79 1019.4
20260831225600 69 0 0.0 2.0 0.00 0.12 0.04 78 1019.3